createdAt,value
2023-04-17T00:00:27.173Z,1.35
2023-04-17T00:01:27.158Z,1.26
2023-04-17T00:02:27.290Z,1.31
2023-04-17T00:03:27.222Z,1.44
2023-04-17T00:04:27.247Z,1.24
2023-04-17T00:05:27.146Z,1.17
2023-04-17T00:06:27.093Z,1.38
2023-04-17T00:07:27.083Z,1.35
2023-04-17T00:08:27.068Z,1.34
2023-04-17T00:09:27.116Z,1.36
2023-04-17T00:10:27.047Z,1.38
2023-04-17T00:11:27.060Z,1.39
2023-04-17T00:12:27.026Z,1.32
2023-04-17T00:13:27.016Z,1.36
2023-04-17T00:14:27.018Z,1.32
2023-04-17T00:15:27.034Z,1.34
2023-04-17T00:16:27.015Z,1.42
2023-04-17T00:17:26.990Z,1.39
2023-04-17T00:18:26.981Z,1.29
2023-04-17T00:19:26.958Z,1.35
2023-04-17T00:20:26.957Z,1.42
2023-04-17T00:21:26.951Z,1.52
2023-04-17T00:22:26.933Z,1.54
2023-04-17T00:23:26.911Z,1.49
2023-04-17T00:24:26.900Z,1.35
2023-04-17T00:25:26.905Z,1.26
2023-04-17T00:26:26.890Z,1.47
2023-04-17T00:27:26.905Z,1.26
2023-04-17T00:28:26.878Z,1.56
2023-04-17T00:29:26.855Z,1.28
2023-04-17T00:30:26.835Z,1.42
2023-04-17T00:31:26.866Z,1.34
2023-04-17T00:32:26.864Z,1.20
2023-04-17T00:33:26.847Z,1.50
2023-04-17T00:34:26.790Z,1.35
2023-04-17T00:35:26.783Z,1.31
2023-04-17T00:36:26.808Z,1.38
2023-04-17T00:37:26.772Z,1.36
2023-04-17T00:38:26.783Z,1.32
2023-04-17T00:39:26.774Z,1.24
2023-04-17T00:40:26.728Z,1.35
2023-04-17T00:41:26.720Z,1.20
2023-04-17T00:42:26.719Z,1.21
2023-04-17T00:43:26.718Z,1.17
2023-04-17T00:44:26.690Z,1.26
2023-04-17T00:45:26.755Z,1.32
2023-04-17T00:46:26.667Z,1.24
2023-04-17T00:47:26.733Z,1.31
2023-04-17T00:48:26.663Z,1.26
2023-04-17T00:49:26.636Z,1.20
2023-04-17T00:50:26.631Z,1.25
2023-04-17T00:51:26.652Z,1.26
2023-04-17T00:52:26.616Z,1.24
2023-04-17T00:53:26.599Z,1.21
2023-04-17T00:54:26.605Z,1.29
2023-04-17T00:55:26.589Z,1.31
2023-04-17T00:56:26.565Z,1.31
2023-04-17T00:57:26.594Z,1.13
2023-04-17T00:58:26.531Z,1.17
2023-04-17T00:59:26.552Z,1.20
2023-04-17T01:00:26.524Z,1.25
2023-04-17T01:01:26.559Z,1.20
2023-04-17T01:02:26.672Z,1.26
2023-04-17T01:03:26.686Z,1.02
2023-04-17T01:04:26.642Z,1.18
2023-04-17T01:05:26.473Z,1.17
2023-04-17T01:06:26.448Z,1.16
2023-04-17T01:07:26.446Z,1.18
2023-04-17T01:08:26.428Z,1.25
2023-04-17T01:09:26.451Z,1.13
2023-04-17T01:10:26.424Z,1.25
2023-04-17T01:11:26.408Z,1.04
2023-04-17T01:12:26.381Z,1.20
2023-04-17T01:13:26.393Z,1.18
2023-04-17T01:14:26.360Z,1.14
2023-04-17T01:15:26.390Z,1.26
2023-04-17T01:16:26.362Z,1.25
2023-04-17T01:17:26.501Z,1.34
2023-04-17T01:18:26.315Z,1.26
2023-04-17T01:19:26.308Z,1.31
2023-04-17T01:20:26.295Z,1.21
2023-04-17T01:21:26.305Z,1.21
2023-04-17T01:22:26.287Z,1.10
2023-04-17T01:23:26.268Z,1.20
2023-04-17T01:24:26.253Z,1.25
2023-04-17T01:25:26.244Z,1.21
2023-04-17T01:26:26.233Z,1.13
2023-04-17T01:27:26.277Z,1.21
2023-04-17T01:28:26.209Z,1.21
2023-04-17T01:29:26.210Z,1.21
2023-04-17T01:30:26.194Z,1.18
2023-04-17T01:31:26.377Z,1.21
2023-04-17T01:32:26.187Z,1.16
2023-04-17T01:33:26.203Z,1.08
2023-04-17T01:34:26.145Z,1.29
2023-04-17T01:35:26.139Z,1.25
2023-04-17T01:36:26.136Z,1.24
2023-04-17T01:37:26.117Z,1.21
2023-04-17T01:38:26.101Z,1.18
2023-04-17T01:39:26.152Z,1.20
2023-04-17T01:40:26.088Z,1.16
2023-04-17T01:41:26.103Z,1.20
2023-04-17T01:42:26.057Z,1.07
2023-04-17T01:43:26.051Z,1.16
2023-04-17T01:44:26.044Z,1.11
2023-04-17T01:45:26.058Z,1.21
2023-04-17T01:46:26.065Z,1.07
2023-04-17T01:47:26.050Z,1.18
2023-04-17T01:48:26.003Z,1.21
2023-04-17T01:49:25.987Z,1.10
2023-04-17T01:50:25.976Z,1.11
2023-04-17T01:51:26.006Z,1.14
2023-04-17T01:52:25.983Z,1.13
2023-04-17T01:53:25.943Z,1.08
2023-04-17T01:54:25.942Z,1.10
2023-04-17T01:55:25.920Z,1.20
2023-04-17T01:56:25.922Z,1.17
2023-04-17T01:57:25.922Z,1.07
2023-04-17T01:58:25.904Z,1.21
2023-04-17T01:59:25.880Z,1.16
2023-04-17T02:00:25.871Z,1.20
2023-04-17T02:01:25.903Z,1.18
2023-04-17T02:02:25.999Z,1.17
2023-04-17T02:03:25.995Z,1.18
2023-04-17T02:04:25.937Z,1.21
2023-04-17T02:05:25.818Z,1.17
2023-04-17T02:06:25.806Z,1.17
2023-04-17T02:07:25.806Z,1.25
2023-04-17T02:08:25.786Z,1.29
2023-04-17T02:09:25.807Z,1.32
2023-04-17T02:10:25.761Z,1.24
2023-04-17T02:11:25.751Z,1.25
2023-04-17T02:12:25.748Z,1.21
2023-04-17T02:13:25.738Z,1.17
2023-04-17T02:14:25.718Z,1.20
2023-04-17T02:15:25.746Z,1.20
2023-04-17T02:16:25.798Z,1.14
2023-04-17T02:17:25.707Z,1.08
2023-04-17T02:18:25.704Z,1.08
2023-04-17T02:19:25.684Z,1.25
2023-04-17T02:20:25.660Z,1.16
2023-04-17T02:21:25.710Z,1.24
2023-04-17T02:22:25.638Z,1.20
2023-04-17T02:23:25.624Z,1.20
2023-04-17T02:24:25.626Z,1.07
2023-04-17T02:25:25.596Z,1.11
2023-04-17T02:26:25.591Z,1.10
2023-04-17T02:27:25.597Z,1.21
2023-04-17T02:28:25.577Z,1.10
2023-04-17T02:29:25.567Z,0.98
2023-04-17T02:30:25.552Z,0.95
2023-04-17T02:31:25.592Z,1.17
2023-04-17T02:32:25.536Z,0.96
2023-04-17T02:33:25.551Z,0.92
2023-04-17T02:34:25.505Z,1.07
2023-04-17T02:35:25.523Z,0.96
2023-04-17T02:36:25.484Z,1.18
2023-04-17T02:37:25.486Z,1.07
2023-04-17T02:38:25.461Z,0.99
2023-04-17T02:39:25.493Z,1.04
2023-04-17T02:40:25.464Z,1.07
2023-04-17T02:41:25.427Z,1.07
2023-04-17T02:42:25.426Z,1.11
2023-04-17T02:43:25.409Z,1.08
2023-04-17T02:44:25.400Z,1.08
2023-04-17T02:45:25.425Z,1.20
2023-04-17T02:46:25.399Z,1.20
2023-04-17T02:47:25.493Z,1.18
2023-04-17T02:48:25.357Z,1.10
2023-04-17T02:49:25.344Z,1.29
2023-04-17T02:50:25.340Z,1.18
2023-04-17T02:51:25.372Z,1.13
2023-04-17T02:52:25.315Z,1.20
2023-04-17T02:53:25.305Z,1.08
2023-04-17T02:54:25.297Z,1.06
2023-04-17T02:55:25.290Z,1.17
2023-04-17T02:56:25.281Z,1.16
2023-04-17T02:57:25.308Z,1.26
2023-04-17T02:58:25.256Z,1.25
2023-04-17T02:59:25.242Z,1.18
2023-04-17T03:00:25.236Z,1.07
2023-04-17T03:01:25.336Z,1.07
2023-04-17T03:02:25.284Z,1.10
2023-04-17T03:03:25.355Z,0.93
2023-04-17T03:04:25.311Z,1.00
2023-04-17T03:05:25.193Z,0.88
2023-04-17T03:06:25.170Z,0.92
2023-04-17T03:07:25.188Z,0.98
2023-04-17T03:08:25.148Z,0.90
2023-04-17T03:09:25.156Z,1.07
2023-04-17T03:10:25.125Z,1.16
2023-04-17T03:11:25.128Z,1.14
2023-04-17T03:12:25.105Z,1.11
2023-04-17T03:13:25.093Z,1.10
2023-04-17T03:14:25.084Z,1.20
2023-04-17T03:15:25.093Z,1.11
2023-04-17T03:16:25.105Z,0.93
2023-04-17T03:17:25.120Z,1.06
2023-04-17T03:18:25.041Z,1.16
2023-04-17T03:19:25.032Z,1.16
2023-04-17T03:20:25.021Z,1.11
2023-04-17T03:21:25.077Z,1.13
2023-04-17T03:22:25.014Z,1.20
2023-04-17T03:23:25.009Z,1.07
2023-04-17T03:24:24.978Z,1.00
2023-04-17T03:25:24.963Z,0.99
2023-04-17T03:26:24.954Z,1.07
2023-04-17T03:27:24.992Z,1.08
2023-04-17T03:28:24.936Z,1.06
2023-04-17T03:29:24.920Z,1.13
2023-04-17T03:30:24.916Z,0.92
2023-04-17T03:31:24.926Z,1.00
2023-04-17T03:32:24.932Z,1.02
2023-04-17T03:33:24.903Z,1.04
2023-04-17T03:34:24.874Z,1.13
2023-04-17T03:35:24.862Z,1.10
2023-04-17T03:36:24.862Z,0.98
2023-04-17T03:37:24.854Z,1.10
2023-04-17T03:38:24.839Z,0.99
2023-04-17T03:39:24.852Z,0.93
2023-04-17T03:40:24.810Z,0.98
2023-04-17T03:41:24.794Z,1.07
2023-04-17T03:42:24.785Z,1.04
2023-04-17T03:43:24.783Z,1.10
2023-04-17T03:44:24.782Z,1.11
2023-04-17T03:45:24.772Z,1.00
2023-04-17T03:46:24.777Z,1.10
2023-04-17T03:47:24.770Z,0.95
2023-04-17T03:48:24.721Z,1.02
2023-04-17T03:49:24.709Z,1.06
2023-04-17T03:50:24.713Z,1.06
2023-04-17T03:51:24.717Z,1.02
2023-04-17T03:52:24.679Z,0.95
2023-04-17T03:53:24.665Z,1.16
2023-04-17T03:54:24.656Z,1.07
2023-04-17T03:55:24.740Z,1.07
2023-04-17T03:56:24.688Z,1.04
2023-04-17T03:57:24.657Z,0.95
2023-04-17T03:58:24.613Z,0.93
2023-04-17T03:59:24.597Z,1.11
2023-04-17T04:00:24.585Z,1.10
2023-04-17T04:01:24.574Z,1.04
2023-04-17T04:02:24.804Z,0.99
2023-04-17T04:03:24.772Z,1.02
2023-04-17T04:04:24.734Z,1.04
2023-04-17T04:05:24.692Z,1.06
2023-04-17T04:06:24.551Z,0.95
2023-04-17T04:07:24.506Z,1.00
2023-04-17T04:08:24.525Z,0.95
2023-04-17T04:09:24.530Z,0.89
2023-04-17T04:10:24.553Z,1.04
2023-04-17T04:11:24.499Z,0.82
2023-04-17T04:12:24.471Z,0.90
2023-04-17T04:13:24.450Z,0.92
2023-04-17T04:14:24.435Z,0.90
2023-04-17T04:15:24.450Z,0.82
2023-04-17T04:16:24.507Z,0.84
2023-04-17T04:17:24.469Z,0.78
2023-04-17T04:18:24.397Z,0.78
2023-04-17T04:19:24.383Z,0.86
2023-04-17T04:20:24.377Z,0.74
2023-04-17T04:21:24.392Z,0.68
2023-04-17T04:22:24.364Z,0.62
2023-04-17T04:23:24.338Z,0.67
2023-04-17T04:24:24.327Z,0.75
2023-04-17T04:25:24.336Z,0.68
2023-04-17T04:26:24.320Z,0.89
2023-04-17T04:27:24.335Z,0.63
2023-04-17T04:28:24.297Z,0.67
2023-04-17T04:29:24.274Z,0.72
2023-04-17T04:30:24.280Z,0.80
2023-04-17T04:31:24.274Z,0.78
2023-04-17T04:32:24.249Z,0.71
2023-04-17T04:33:24.269Z,0.77
2023-04-17T04:34:24.235Z,0.75
2023-04-17T04:35:24.218Z,0.71
2023-04-17T04:36:24.218Z,0.75
2023-04-17T04:37:24.187Z,0.72
2023-04-17T04:38:24.188Z,0.78
2023-04-17T04:39:24.217Z,0.90
2023-04-17T04:40:24.160Z,0.81
2023-04-17T04:41:24.161Z,0.84
2023-04-17T04:42:24.142Z,0.77
2023-04-17T04:43:24.151Z,0.71
2023-04-17T04:44:24.122Z,0.78
2023-04-17T04:45:24.146Z,0.59
2023-04-17T04:46:24.180Z,0.74
2023-04-17T04:47:24.104Z,0.78
2023-04-17T04:48:24.085Z,0.81
2023-04-17T04:49:24.063Z,0.89
2023-04-17T04:50:24.074Z,0.84
2023-04-17T04:51:24.081Z,0.82
2023-04-17T04:52:24.035Z,0.92
2023-04-17T04:53:24.020Z,0.81
2023-04-17T04:54:24.013Z,0.80
2023-04-17T04:55:24.000Z,0.71
2023-04-17T04:56:24.003Z,0.81
2023-04-17T04:57:24.026Z,0.75
2023-04-17T04:58:23.967Z,0.64
2023-04-17T04:59:23.974Z,0.88
2023-04-17T05:00:23.956Z,0.86
2023-04-17T05:01:24.033Z,0.72
2023-04-17T05:02:24.112Z,0.88
2023-04-17T05:03:24.094Z,0.74
2023-04-17T05:04:23.952Z,0.72
2023-04-17T05:05:23.894Z,0.71
2023-04-17T05:06:23.887Z,0.71
2023-04-17T05:07:23.878Z,0.49
2023-04-17T05:08:23.878Z,0.60
2023-04-17T05:09:23.892Z,0.59
2023-04-17T05:10:23.845Z,0.60
2023-04-17T05:11:23.840Z,0.51
2023-04-17T05:12:23.826Z,0.63
2023-04-17T05:13:23.813Z,0.44
2023-04-17T05:14:23.810Z,0.59
2023-04-17T05:15:23.838Z,0.63
2023-04-17T05:16:23.820Z,0.52
2023-04-17T05:17:23.829Z,0.64
2023-04-17T05:18:23.762Z,0.48
2023-04-17T05:19:23.744Z,0.74
2023-04-17T05:20:23.749Z,0.60
2023-04-17T05:21:23.761Z,0.63
2023-04-17T05:22:23.721Z,0.74
2023-04-17T05:23:23.723Z,0.74
2023-04-17T05:24:23.700Z,0.90
2023-04-17T05:25:23.694Z,0.89
2023-04-17T05:26:23.681Z,0.88
2023-04-17T05:27:23.733Z,0.96
2023-04-17T05:28:23.657Z,1.10
2023-04-17T05:29:23.640Z,1.14
2023-04-17T05:30:23.638Z,1.11
2023-04-17T05:31:23.668Z,1.35
2023-04-17T05:32:23.653Z,1.86
2023-04-17T05:33:23.658Z,2.23
2023-04-17T05:34:23.594Z,2.45
2023-04-17T05:35:23.579Z,2.68
2023-04-17T05:36:23.570Z,2.55
2023-04-17T05:37:23.566Z,2.30
2023-04-17T05:38:23.546Z,2.79
2023-04-17T05:39:23.554Z,3.20
2023-04-17T05:40:23.526Z,3.42
2023-04-17T05:41:23.520Z,3.72
2023-04-17T05:42:23.506Z,3.53
2023-04-17T05:43:23.505Z,3.52
2023-04-17T05:44:23.479Z,3.37
2023-04-17T05:45:25.585Z,3.42
2023-04-17T05:46:23.515Z,3.41
2023-04-17T05:47:23.537Z,3.71
2023-04-17T05:48:23.458Z,3.80
2023-04-17T05:49:23.454Z,3.95
2023-04-17T05:50:23.426Z,3.63
2023-04-17T05:51:23.429Z,3.81
2023-04-17T05:52:23.393Z,3.80
2023-04-17T05:53:23.394Z,3.92
2023-04-17T05:54:23.375Z,4.39
2023-04-17T05:55:23.384Z,4.16
2023-04-17T05:56:23.358Z,3.72
2023-04-17T05:57:23.364Z,3.78
2023-04-17T05:58:24.410Z,3.50
2023-04-17T05:59:23.318Z,3.35
2023-04-17T06:00:23.325Z,3.35
2023-04-17T06:01:23.297Z,3.02
2023-04-17T06:02:23.466Z,2.98
2023-04-17T06:03:23.662Z,2.81
2023-04-17T06:04:23.526Z,2.92
2023-04-17T06:05:23.330Z,2.79
2023-04-17T06:06:23.291Z,2.69
2023-04-17T06:07:23.234Z,2.66
2023-04-17T06:08:23.246Z,2.61
2023-04-17T06:09:25.668Z,2.51
2023-04-17T06:10:23.202Z,2.73
2023-04-17T06:11:23.199Z,2.65
2023-04-17T06:12:23.189Z,2.47
2023-04-17T06:13:23.172Z,2.56
2023-04-17T06:14:23.218Z,2.43
2023-04-17T06:15:23.157Z,2.51
2023-04-17T06:16:23.220Z,2.41
2023-04-17T06:17:23.150Z,2.44
2023-04-17T06:18:23.126Z,2.33
2023-04-17T06:19:23.127Z,2.38
2023-04-17T06:20:23.139Z,2.32
2023-04-17T06:21:23.105Z,2.79
2023-04-17T06:22:23.072Z,3.39
2023-04-17T06:23:23.075Z,3.98
2023-04-17T06:24:23.053Z,4.54
2023-04-17T06:25:23.044Z,4.99
2023-04-17T06:26:23.053Z,5.35
2023-04-17T06:27:23.035Z,5.09
2023-04-17T06:28:23.015Z,4.99
2023-04-17T06:29:23.002Z,5.32
2023-04-17T06:30:22.988Z,5.58
2023-04-17T06:31:23.015Z,5.12
2023-04-17T06:32:23.017Z,5.05
2023-04-17T06:33:24.623Z,4.87
2023-04-17T06:34:22.948Z,4.69
2023-04-17T06:35:23.092Z,4.57
2023-04-17T06:36:22.936Z,4.71
2023-04-17T06:37:22.916Z,5.29
2023-04-17T06:38:22.943Z,5.06
2023-04-17T06:39:22.904Z,4.80
2023-04-17T06:40:22.886Z,4.50
2023-04-17T06:41:22.870Z,4.31
2023-04-17T06:42:22.855Z,4.36
2023-04-17T06:43:22.852Z,4.18
2023-04-17T06:44:22.876Z,3.90
2023-04-17T06:45:22.828Z,3.90
2023-04-17T06:46:22.859Z,4.02
2023-04-17T06:47:22.830Z,4.21
2023-04-17T06:48:22.810Z,4.26
2023-04-17T06:49:22.793Z,4.25
2023-04-17T06:50:22.813Z,4.25
2023-04-17T06:51:23.092Z,4.17
2023-04-17T06:52:22.751Z,4.20
2023-04-17T06:53:22.740Z,4.16
2023-04-17T06:54:22.727Z,4.14
2023-04-17T06:55:22.728Z,4.10
2023-04-17T06:56:22.734Z,4.20
2023-04-17T06:57:22.722Z,4.32
2023-04-17T06:58:22.691Z,4.84
2023-04-17T06:59:22.679Z,5.15
2023-04-17T07:00:22.667Z,5.52
2023-04-17T07:01:22.717Z,5.78
2023-04-17T07:02:22.943Z,5.77
2023-04-17T07:03:22.789Z,6.19
2023-04-17T07:04:22.642Z,6.42
2023-04-17T07:05:22.621Z,6.16
2023-04-17T07:06:22.593Z,5.41
2023-04-17T07:07:22.650Z,4.75
2023-04-17T07:08:22.687Z,4.32
2023-04-17T07:09:22.577Z,4.43
2023-04-17T07:10:22.554Z,4.75
2023-04-17T07:11:22.554Z,5.06
2023-04-17T07:12:22.538Z,5.45
2023-04-17T07:13:22.534Z,5.26
2023-04-17T07:14:22.524Z,4.83
2023-04-17T07:15:22.515Z,4.42
2023-04-17T07:16:22.504Z,4.21
2023-04-17T07:17:22.498Z,4.31
2023-04-17T07:18:22.486Z,4.84
2023-04-17T07:19:22.467Z,4.35
2023-04-17T07:20:22.453Z,4.29
2023-04-17T07:21:22.431Z,3.98
2023-04-17T07:22:22.420Z,3.92
2023-04-17T07:23:22.432Z,3.95
2023-04-17T07:24:22.422Z,4.02
2023-04-17T07:25:22.398Z,3.84
2023-04-17T07:26:22.458Z,3.92
2023-04-17T07:27:22.370Z,3.92
2023-04-17T07:28:22.355Z,3.78
2023-04-17T07:29:22.356Z,3.78
2023-04-17T07:30:22.376Z,3.70
2023-04-17T07:31:22.577Z,3.46
2023-04-17T07:32:22.359Z,3.78
2023-04-17T07:33:22.312Z,3.95
2023-04-17T07:34:22.291Z,4.02
2023-04-17T07:35:22.294Z,3.86
2023-04-17T07:36:22.269Z,3.86
2023-04-17T07:37:22.284Z,3.74
2023-04-17T07:38:22.250Z,3.60
2023-04-17T07:39:22.269Z,3.62
2023-04-17T07:40:22.227Z,3.77
2023-04-17T07:41:22.244Z,3.60
2023-04-17T07:42:22.207Z,3.64
2023-04-17T07:43:22.210Z,3.71
2023-04-17T07:44:22.188Z,3.71
2023-04-17T07:45:22.180Z,3.72
2023-04-17T07:46:22.203Z,3.64
2023-04-17T07:47:22.408Z,3.63
2023-04-17T07:48:22.141Z,3.59
2023-04-17T07:49:22.149Z,3.77
2023-04-17T07:50:22.144Z,3.60
2023-04-17T07:51:22.120Z,3.53
2023-04-17T07:52:22.096Z,3.46
2023-04-17T07:53:22.109Z,3.59
2023-04-17T07:54:22.078Z,3.59
2023-04-17T07:55:22.091Z,3.68
2023-04-17T07:56:22.066Z,3.59
2023-04-17T07:57:22.075Z,3.49
2023-04-17T07:58:22.033Z,3.62
2023-04-17T07:59:22.030Z,3.62
2023-04-17T08:00:22.026Z,3.67
2023-04-17T08:01:22.045Z,3.86
2023-04-17T08:02:22.816Z,4.08
2023-04-17T08:03:22.352Z,4.51
2023-04-17T08:04:22.177Z,4.64
2023-04-17T08:05:22.027Z,4.56
2023-04-17T08:06:21.962Z,4.34
2023-04-17T08:07:21.964Z,4.56
2023-04-17T08:08:21.926Z,4.47
2023-04-17T08:09:21.918Z,4.64
2023-04-17T08:10:21.906Z,4.51
2023-04-17T08:11:21.966Z,4.35
2023-04-17T08:12:21.893Z,4.21
2023-04-17T08:13:22.315Z,4.28
2023-04-17T08:14:21.866Z,4.31
2023-04-17T08:15:21.876Z,4.75
2023-04-17T08:16:21.942Z,4.36
2023-04-17T08:17:21.910Z,4.42
2023-04-17T08:18:21.835Z,4.34
2023-04-17T08:19:21.835Z,4.24
2023-04-17T08:20:21.798Z,4.14
2023-04-17T08:21:21.797Z,4.24
2023-04-17T08:22:21.779Z,4.25
2023-04-17T08:23:21.772Z,4.31
2023-04-17T08:24:21.798Z,4.31
2023-04-17T08:25:21.757Z,4.32
2023-04-17T08:26:21.735Z,4.44
2023-04-17T08:27:21.752Z,4.42
2023-04-17T08:28:21.709Z,4.42
2023-04-17T08:29:21.703Z,4.24
2023-04-17T08:30:21.776Z,4.18
2023-04-17T08:31:21.753Z,4.10
2023-04-17T08:32:21.733Z,4.14
2023-04-17T08:33:21.660Z,4.13
2023-04-17T08:34:21.651Z,4.14
2023-04-17T08:35:21.649Z,4.11
2023-04-17T08:36:21.796Z,4.21
2023-04-17T08:37:21.615Z,4.51
2023-04-17T08:38:21.611Z,4.34
2023-04-17T08:39:21.594Z,4.20
2023-04-17T08:40:21.598Z,4.26
2023-04-17T08:41:21.573Z,4.46
2023-04-17T08:42:21.601Z,4.83
2023-04-17T08:43:21.653Z,4.94
2023-04-17T08:44:21.561Z,5.08
2023-04-17T08:45:21.543Z,4.96
2023-04-17T08:46:21.585Z,4.91
2023-04-17T08:47:21.544Z,4.97
2023-04-17T08:48:21.528Z,4.83
2023-04-17T08:49:21.486Z,4.91
2023-04-17T08:50:21.515Z,4.88
2023-04-17T08:51:21.464Z,5.11
2023-04-17T08:52:21.459Z,5.02
2023-04-17T08:53:21.452Z,4.99
2023-04-17T08:54:21.463Z,4.83
2023-04-17T08:55:21.424Z,4.93
2023-04-17T08:56:21.433Z,4.86
2023-04-17T08:57:21.402Z,4.88
2023-04-17T08:58:21.394Z,4.87
2023-04-17T08:59:21.410Z,4.90
2023-04-17T09:00:21.481Z,4.90
2023-04-17T09:01:21.371Z,4.87
2023-04-17T09:02:21.587Z,4.80
2023-04-17T09:03:21.473Z,4.65
2023-04-17T09:04:21.478Z,4.67
2023-04-17T09:05:21.312Z,4.69
2023-04-17T09:06:21.332Z,4.69
2023-04-17T09:07:21.291Z,4.84
2023-04-17T09:08:21.295Z,4.88
2023-04-17T09:09:21.270Z,4.93
2023-04-17T09:10:21.328Z,4.87
2023-04-17T09:11:21.247Z,4.99
2023-04-17T09:12:21.256Z,4.65
2023-04-17T09:13:21.237Z,4.77
2023-04-17T09:14:21.232Z,4.83
2023-04-17T09:15:21.288Z,4.83
2023-04-17T09:16:21.289Z,5.08
2023-04-17T09:17:21.180Z,5.24
2023-04-17T09:18:21.215Z,5.14
2023-04-17T09:19:21.162Z,5.05
2023-04-17T09:20:21.162Z,4.93
2023-04-17T09:21:21.153Z,4.94
2023-04-17T09:22:21.137Z,4.91
2023-04-17T09:23:21.118Z,5.04
2023-04-17T09:24:21.148Z,5.12
2023-04-17T09:25:21.128Z,5.11
2023-04-17T09:26:21.121Z,5.06
2023-04-17T09:27:21.078Z,4.86
2023-04-17T09:28:21.068Z,4.84
2023-04-17T09:29:21.054Z,4.87
2023-04-17T09:30:21.085Z,5.12
2023-04-17T09:31:21.181Z,5.01
2023-04-17T09:32:21.059Z,5.26
2023-04-17T09:33:21.016Z,5.33
2023-04-17T09:34:21.007Z,5.38
2023-04-17T09:35:21.002Z,5.26
2023-04-17T09:36:22.209Z,5.11
2023-04-17T09:37:20.981Z,5.26
2023-04-17T09:38:20.966Z,5.29
2023-04-17T09:39:21.170Z,5.12
2023-04-17T09:40:20.979Z,5.08
2023-04-17T09:41:20.926Z,5.06
2023-04-17T09:42:20.934Z,5.02
2023-04-17T09:43:20.906Z,5.23
2023-04-17T09:44:20.901Z,5.33
2023-04-17T09:45:20.899Z,5.42
2023-04-17T09:46:20.896Z,5.65
2023-04-17T09:47:20.916Z,5.81
2023-04-17T09:48:20.873Z,5.73
2023-04-17T09:49:20.846Z,5.78
2023-04-17T09:50:20.841Z,5.56
2023-04-17T09:51:20.826Z,5.41
2023-04-17T09:52:20.823Z,5.62
2023-04-17T09:53:20.796Z,5.59
2023-04-17T09:54:20.827Z,5.55
2023-04-17T09:55:20.778Z,5.65
2023-04-17T09:56:20.782Z,5.92
2023-04-17T09:57:20.778Z,5.78
2023-04-17T09:58:20.740Z,5.95
2023-04-17T09:59:20.739Z,6.43
2023-04-17T10:00:20.743Z,7.00
2023-04-17T10:01:20.787Z,7.42
2023-04-17T10:02:20.816Z,7.24
2023-04-17T10:03:20.968Z,7.21
2023-04-17T10:04:20.790Z,6.79
2023-04-17T10:05:20.660Z,6.58
2023-04-17T10:06:20.662Z,6.36
2023-04-17T10:07:20.643Z,6.78
2023-04-17T10:08:20.641Z,6.83
2023-04-17T10:09:20.629Z,6.86
2023-04-17T10:10:20.611Z,6.93
2023-04-17T10:11:20.596Z,6.89
2023-04-17T10:12:20.604Z,7.29
2023-04-17T10:13:20.578Z,7.86
2023-04-17T10:14:20.575Z,8.40
2023-04-17T10:15:20.562Z,8.27
2023-04-17T10:16:20.571Z,8.42
2023-04-17T10:17:20.538Z,8.67
2023-04-17T10:18:20.533Z,8.80
2023-04-17T10:19:20.535Z,8.73
2023-04-17T10:20:20.502Z,8.80
2023-04-17T10:21:20.506Z,9.03
2023-04-17T10:22:20.516Z,9.32
2023-04-17T10:23:20.464Z,9.75
2023-04-17T10:24:20.466Z,10.02
2023-04-17T10:25:20.481Z,9.52
2023-04-17T10:26:20.441Z,9.34
2023-04-17T10:27:20.423Z,9.23
2023-04-17T10:28:20.430Z,9.08
2023-04-17T10:29:20.404Z,8.68
2023-04-17T10:31:20.471Z,8.86
2023-04-17T10:32:20.407Z,9.10
2023-04-17T10:33:20.356Z,9.03
2023-04-17T10:34:20.349Z,8.73
2023-04-17T10:35:20.370Z,7.88
2023-04-17T10:36:20.352Z,7.48
2023-04-17T10:37:20.317Z,7.52
2023-04-17T10:38:20.302Z,7.85
2023-04-17T10:39:20.300Z,7.89
2023-04-17T10:40:20.283Z,8.10
2023-04-17T10:41:20.281Z,7.96
2023-04-17T10:42:20.277Z,8.24
2023-04-17T10:43:20.267Z,8.60
2023-04-17T10:44:20.265Z,8.55
2023-04-17T10:45:20.248Z,8.43
2023-04-17T10:46:20.272Z,8.24
2023-04-17T10:47:20.234Z,7.81
2023-04-17T10:48:20.214Z,7.71
2023-04-17T10:49:20.186Z,7.42
2023-04-17T10:50:20.186Z,7.21
2023-04-17T10:51:20.186Z,7.08
2023-04-17T10:52:20.169Z,7.26
2023-04-17T10:53:20.166Z,7.45
2023-04-17T10:54:20.128Z,7.29
2023-04-17T10:55:20.127Z,7.29
2023-04-17T10:56:20.106Z,7.18
2023-04-17T10:57:20.099Z,7.12
2023-04-17T10:58:20.092Z,6.96
2023-04-17T10:59:20.102Z,6.86
2023-04-17T11:00:20.091Z,6.72
2023-04-17T11:01:20.109Z,6.76
2023-04-17T11:02:20.146Z,6.87
2023-04-17T11:03:20.184Z,6.73
2023-04-17T11:04:20.085Z,6.96
2023-04-17T11:05:20.016Z,7.11
2023-04-17T11:06:19.996Z,7.18
2023-04-17T11:07:20.083Z,7.12
2023-04-17T11:08:19.981Z,7.15
2023-04-17T11:09:19.977Z,7.18
2023-04-17T11:10:19.954Z,6.96
2023-04-17T11:11:26.947Z,6.96
2023-04-17T11:12:20.930Z,7.32
2023-04-17T11:13:19.929Z,7.33
2023-04-17T11:14:19.920Z,7.37
2023-04-17T11:15:19.904Z,7.26
2023-04-17T11:16:19.895Z,7.26
2023-04-17T11:17:19.896Z,7.05
2023-04-17T11:18:19.870Z,6.97
2023-04-17T11:19:19.866Z,6.93
2023-04-17T11:20:19.854Z,6.93
2023-04-17T11:21:19.836Z,7.01
2023-04-17T11:22:19.822Z,7.23
2023-04-17T11:23:19.847Z,7.24
2023-04-17T11:24:19.815Z,7.07
2023-04-17T11:25:19.801Z,7.14
2023-04-17T11:26:19.780Z,7.04
2023-04-17T11:27:19.773Z,6.99
2023-04-17T11:28:19.765Z,6.86
2023-04-17T11:29:19.790Z,6.91
2023-04-17T11:30:19.742Z,6.96
2023-04-17T11:31:21.490Z,7.01
2023-04-17T11:32:19.844Z,6.83
2023-04-17T11:33:19.708Z,6.90
2023-04-17T11:34:19.705Z,6.76
2023-04-17T11:35:19.694Z,6.72
2023-04-17T11:36:19.671Z,6.60
2023-04-17T11:37:19.664Z,6.50
2023-04-17T11:38:19.662Z,6.38
2023-04-17T11:39:19.673Z,6.36
2023-04-17T11:40:19.628Z,6.46
2023-04-17T11:41:19.644Z,6.28
2023-04-17T11:42:19.607Z,6.35
2023-04-17T11:43:19.604Z,6.16
2023-04-17T11:44:19.602Z,6.01
2023-04-17T11:45:19.576Z,5.87
2023-04-17T11:46:19.611Z,5.93
2023-04-17T11:47:19.611Z,6.01
2023-04-17T11:48:19.541Z,6.08
2023-04-17T11:49:19.552Z,6.19
2023-04-17T11:50:19.517Z,6.32
2023-04-17T11:51:19.516Z,6.19
2023-04-17T11:52:19.509Z,6.33
2023-04-17T11:53:19.496Z,6.40
2023-04-17T11:54:19.487Z,6.45
2023-04-17T11:55:19.516Z,6.30
2023-04-17T11:56:19.456Z,6.33
2023-04-17T11:57:19.448Z,6.48
2023-04-17T11:58:19.435Z,6.55
2023-04-17T11:59:19.426Z,6.53
2023-04-17T12:00:19.430Z,6.76
2023-04-17T12:01:19.417Z,6.68
2023-04-17T12:02:19.439Z,6.68
2023-04-17T12:03:19.549Z,6.96
2023-04-17T12:04:19.693Z,6.72
2023-04-17T12:05:19.468Z,6.72
2023-04-17T12:06:19.371Z,6.75
2023-04-17T12:07:19.353Z,6.86
2023-04-17T12:08:19.342Z,6.82
2023-04-17T12:09:19.318Z,6.90
2023-04-17T12:10:19.326Z,6.91
2023-04-17T12:11:19.320Z,6.96
2023-04-17T12:12:19.327Z,6.94
2023-04-17T12:13:19.281Z,6.91
2023-04-17T12:14:19.275Z,6.87
2023-04-17T12:15:19.254Z,7.00
2023-04-17T12:16:19.274Z,6.78
2023-04-17T12:17:19.241Z,6.89
2023-04-17T12:18:19.256Z,6.90
2023-04-17T12:19:19.213Z,6.97
2023-04-17T12:20:19.208Z,7.11
2023-04-17T12:21:19.189Z,7.04
2023-04-17T12:22:19.186Z,7.21
2023-04-17T12:23:19.171Z,7.11
2023-04-17T12:24:19.175Z,7.00
2023-04-17T12:25:19.149Z,6.93
2023-04-17T12:26:19.137Z,6.93
2023-04-17T12:27:19.166Z,6.89
2023-04-17T12:28:19.117Z,6.96
2023-04-17T12:29:26.414Z,6.75
2023-04-17T12:30:20.104Z,6.75
2023-04-17T12:31:19.111Z,6.65
2023-04-17T12:32:19.080Z,6.65
2023-04-17T12:33:19.102Z,6.76
2023-04-17T12:34:19.045Z,6.93
2023-04-17T12:35:19.068Z,7.01
2023-04-17T12:36:19.070Z,7.07
2023-04-17T12:37:19.032Z,7.33
2023-04-17T12:38:19.002Z,7.37
2023-04-17T12:39:19.008Z,7.15
2023-04-17T12:40:18.989Z,7.09
2023-04-17T12:41:18.974Z,6.97
2023-04-17T12:42:18.997Z,7.01
2023-04-17T12:43:18.983Z,6.99
2023-04-17T12:44:18.951Z,7.08
2023-04-17T12:45:18.939Z,6.97
2023-04-17T12:46:18.937Z,6.97
2023-04-17T12:47:19.132Z,7.01
2023-04-17T12:48:18.937Z,7.12
2023-04-17T12:49:18.888Z,7.18
2023-04-17T12:50:18.880Z,7.12
2023-04-17T12:51:18.873Z,7.08
2023-04-17T12:52:18.850Z,7.00
2023-04-17T12:53:18.845Z,6.93
2023-04-17T12:54:18.846Z,6.97
2023-04-17T12:55:18.830Z,7.08
2023-04-17T12:56:18.817Z,7.11
2023-04-17T12:57:18.798Z,7.19
2023-04-17T12:58:18.785Z,6.99
2023-04-17T12:59:18.813Z,7.11
2023-04-17T13:00:18.782Z,7.30
2023-04-17T13:01:18.877Z,7.48
2023-04-17T13:02:18.968Z,7.29
2023-04-17T13:03:18.987Z,7.36
2023-04-17T13:04:19.379Z,7.44
2023-04-17T13:05:18.713Z,7.48
2023-04-17T13:06:18.726Z,7.32
2023-04-17T13:07:18.704Z,7.18
2023-04-17T13:08:18.680Z,7.27
2023-04-17T13:09:18.672Z,7.21
2023-04-17T13:10:18.658Z,6.96
2023-04-17T13:11:18.651Z,6.99
2023-04-17T13:12:18.647Z,7.08
2023-04-17T13:13:18.644Z,7.14
2023-04-17T13:14:18.609Z,7.27
2023-04-17T13:15:18.627Z,7.23
2023-04-17T13:16:18.618Z,7.44
2023-04-17T13:17:18.624Z,7.26
2023-04-17T13:18:18.579Z,7.24
2023-04-17T13:19:18.578Z,7.37